sensor_id;sensor_type;location;lat;lon;timestamp;P1;durP1;ratioP1;P2;durP2;ratioP2
72674;SDS011;60752;53.962;9.614;2022-10-19T00:02:59;4.70;;;0.90;;
72674;SDS011;60752;53.962;9.614;2022-10-19T00:08:00;7.28;;;0.85;;
72674;SDS011;60752;53.962;9.614;2022-10-19T00:13:00;4.07;;;1.33;;
72674;SDS011;60752;53.962;9.614;2022-10-19T00:18:05;2.93;;;0.70;;
72674;SDS011;60752;53.962;9.614;2022-10-19T00:23:05;6.90;;;1.00;;
72674;SDS011;60752;53.962;9.614;2022-10-19T00:28:06;9.20;;;1.20;;
72674;SDS011;60752;53.962;9.614;2022-10-19T00:33:08;6.10;;;1.23;;
72674;SDS011;60752;53.962;9.614;2022-10-19T00:38:08;10.98;;;1.20;;
72674;SDS011;60752;53.962;9.614;2022-10-19T00:43:09;3.37;;;0.70;;
72674;SDS011;60752;53.962;9.614;2022-10-19T00:48:15;6.77;;;1.10;;
72674;SDS011;60752;53.962;9.614;2022-10-19T00:53:18;4.57;;;0.70;;
72674;SDS011;60752;53.962;9.614;2022-10-19T00:58:19;5.10;;;1.10;;
72674;SDS011;60752;53.962;9.614;2022-10-19T01:03:21;3.77;;;0.93;;
72674;SDS011;60752;53.962;9.614;2022-10-19T01:08:21;4.40;;;0.63;;
72674;SDS011;60752;53.962;9.614;2022-10-19T01:13:25;3.73;;;0.80;;
72674;SDS011;60752;53.962;9.614;2022-10-19T01:18:35;4.15;;;0.80;;
72674;SDS011;60752;53.962;9.614;2022-10-19T01:23:48;5.38;;;0.85;;
72674;SDS011;60752;53.962;9.614;2022-10-19T01:29:03;6.77;;;0.70;;
72674;SDS011;60752;53.962;9.614;2022-10-19T01:34:12;4.47;;;0.90;;
72674;SDS011;60752;53.962;9.614;2022-10-19T01:39:18;5.78;;;1.00;;
72674;SDS011;60752;53.962;9.614;2022-10-19T01:44:24;4.87;;;0.73;;
72674;SDS011;60752;53.962;9.614;2022-10-19T01:49:33;4.38;;;1.10;;
72674;SDS011;60752;53.962;9.614;2022-10-19T01:54:40;5.97;;;0.90;;
72674;SDS011;60752;53.962;9.614;2022-10-19T01:59:43;6.20;;;1.23;;
72674;SDS011;60752;53.962;9.614;2022-10-19T02:04:47;5.23;;;1.23;;
72674;SDS011;60752;53.962;9.614;2022-10-19T02:09:49;5.28;;;1.15;;
72674;SDS011;60752;53.962;9.614;2022-10-19T02:14:50;4.63;;;0.93;;
72674;SDS011;60752;53.962;9.614;2022-10-19T02:19:56;6.40;;;1.23;;
72674;SDS011;60752;53.962;9.614;2022-10-19T02:24:57;5.67;;;0.83;;
72674;SDS011;60752;53.962;9.614;2022-10-19T02:29:58;4.43;;;0.80;;
72674;SDS011;60752;53.962;9.614;2022-10-19T02:35:00;5.93;;;1.20;;
72674;SDS011;60752;53.962;9.614;2022-10-19T02:40:01;7.30;;;1.00;;
72674;SDS011;60752;53.962;9.614;2022-10-19T02:45:05;6.63;;;0.80;;
72674;SDS011;60752;53.962;9.614;2022-10-19T02:50:09;7.03;;;1.20;;
72674;SDS011;60752;53.962;9.614;2022-10-19T02:55:10;5.13;;;1.07;;
72674;SDS011;60752;53.962;9.614;2022-10-19T03:00:11;7.47;;;1.37;;
72674;SDS011;60752;53.962;9.614;2022-10-19T03:05:13;8.02;;;1.02;;
72674;SDS011;60752;53.962;9.614;2022-10-19T03:10:13;9.60;;;1.10;;
72674;SDS011;60752;53.962;9.614;2022-10-19T03:15:14;8.00;;;1.35;;
72674;SDS011;60752;53.962;9.614;2022-10-19T03:20:17;9.03;;;1.20;;
72674;SDS011;60752;53.962;9.614;2022-10-19T03:25:17;4.03;;;1.23;;
72674;SDS011;60752;53.962;9.614;2022-10-19T03:30:17;6.17;;;1.03;;
72674;SDS011;60752;53.962;9.614;2022-10-19T03:35:19;8.50;;;1.00;;
72674;SDS011;60752;53.962;9.614;2022-10-19T03:40:19;8.38;;;1.20;;
72674;SDS011;60752;53.962;9.614;2022-10-19T03:45:20;9.73;;;1.30;;
72674;SDS011;60752;53.962;9.614;2022-10-19T03:50:22;7.20;;;1.20;;
72674;SDS011;60752;53.962;9.614;2022-10-19T03:55:22;6.73;;;1.07;;
72674;SDS011;60752;53.962;9.614;2022-10-19T04:00:23;8.67;;;1.27;;
72674;SDS011;60752;53.962;9.614;2022-10-19T04:05:24;6.63;;;1.10;;
72674;SDS011;60752;53.962;9.614;2022-10-19T04:10:25;6.73;;;1.20;;
72674;SDS011;60752;53.962;9.614;2022-10-19T04:15:25;6.53;;;1.00;;
72674;SDS011;60752;53.962;9.614;2022-10-19T04:20:27;4.23;;;0.90;;
72674;SDS011;60752;53.962;9.614;2022-10-19T04:25:27;3.95;;;1.15;;
72674;SDS011;60752;53.962;9.614;2022-10-19T04:30:28;8.73;;;1.10;;
72674;SDS011;60752;53.962;9.614;2022-10-19T04:35:29;7.70;;;1.17;;
72674;SDS011;60752;53.962;9.614;2022-10-19T04:40:30;2.08;;;0.80;;
72674;SDS011;60752;53.962;9.614;2022-10-19T04:45:33;8.57;;;1.37;;
72674;SDS011;60752;53.962;9.614;2022-10-19T04:50:35;5.63;;;0.93;;
72674;SDS011;60752;53.962;9.614;2022-10-19T04:55:38;9.23;;;1.23;;
72674;SDS011;60752;53.962;9.614;2022-10-19T05:00:39;6.90;;;0.90;;
72674;SDS011;60752;53.962;9.614;2022-10-19T05:05:41;9.47;;;1.73;;
72674;SDS011;60752;53.962;9.614;2022-10-19T05:10:42;9.25;;;2.00;;
72674;SDS011;60752;53.962;9.614;2022-10-19T05:15:42;10.47;;;1.80;;
72674;SDS011;60752;53.962;9.614;2022-10-19T05:20:44;7.50;;;1.80;;
72674;SDS011;60752;53.962;9.614;2022-10-19T05:25:44;7.82;;;1.85;;
72674;SDS011;60752;53.962;9.614;2022-10-19T05:30:44;6.13;;;1.80;;
72674;SDS011;60752;53.962;9.614;2022-10-19T05:35:46;6.37;;;1.33;;
72674;SDS011;60752;53.962;9.614;2022-10-19T05:40:47;6.13;;;1.30;;
72674;SDS011;60752;53.962;9.614;2022-10-19T05:45:47;6.03;;;1.00;;
72674;SDS011;60752;53.962;9.614;2022-10-19T05:50:53;11.53;;;1.67;;
72674;SDS011;60752;53.962;9.614;2022-10-19T05:55:53;6.47;;;1.00;;
72674;SDS011;60752;53.962;9.614;2022-10-19T06:00:55;8.10;;;1.48;;
72674;SDS011;60752;53.962;9.614;2022-10-19T06:06:00;7.67;;;1.07;;
72674;SDS011;60752;53.962;9.614;2022-10-19T06:11:05;8.88;;;1.00;;
72674;SDS011;60752;53.962;9.614;2022-10-19T06:16:07;4.50;;;1.20;;
72674;SDS011;60752;53.962;9.614;2022-10-19T06:21:11;10.70;;;1.33;;
72674;SDS011;60752;53.962;9.614;2022-10-19T06:26:13;8.98;;;1.10;;
72674;SDS011;60752;53.962;9.614;2022-10-19T06:31:14;6.70;;;1.30;;
72674;SDS011;60752;53.962;9.614;2022-10-19T06:36:17;7.53;;;1.20;;
72674;SDS011;60752;53.962;9.614;2022-10-19T06:41:18;8.32;;;1.40;;
72674;SDS011;60752;53.962;9.614;2022-10-19T06:46:19;6.40;;;1.20;;
72674;SDS011;60752;53.962;9.614;2022-10-19T06:51:23;18.75;;;2.50;;
72674;SDS011;60752;53.962;9.614;2022-10-19T06:56:24;10.50;;;2.17;;
72674;SDS011;60752;53.962;9.614;2022-10-19T07:01:25;9.03;;;2.27;;
72674;SDS011;60752;53.962;9.614;2022-10-19T07:06:27;8.00;;;1.50;;
72674;SDS011;60752;53.962;9.614;2022-10-19T07:11:30;8.57;;;1.20;;
72674;SDS011;60752;53.962;9.614;2022-10-19T07:16:30;9.67;;;1.33;;
72674;SDS011;60752;53.962;9.614;2022-10-19T07:21:32;9.07;;;1.70;;
72674;SDS011;60752;53.962;9.614;2022-10-19T07:26:33;5.57;;;1.48;;
72674;SDS011;60752;53.962;9.614;2022-10-19T07:31:35;8.30;;;1.33;;
72674;SDS011;60752;53.962;9.614;2022-10-19T07:36:42;7.78;;;1.40;;
72674;SDS011;60752;53.962;9.614;2022-10-19T07:41:44;10.27;;;1.60;;
72674;SDS011;60752;53.962;9.614;2022-10-19T07:46:44;9.77;;;1.60;;
72674;SDS011;60752;53.962;9.614;2022-10-19T07:51:46;14.10;;;1.87;;
72674;SDS011;60752;53.962;9.614;2022-10-19T07:56:46;15.32;;;2.00;;
72674;SDS011;60752;53.962;9.614;2022-10-19T08:01:47;9.10;;;1.30;;
72674;SDS011;60752;53.962;9.614;2022-10-19T08:06:48;7.10;;;1.30;;
72674;SDS011;60752;53.962;9.614;2022-10-19T08:11:49;4.40;;;0.93;;
72674;SDS011;60752;53.962;9.614;2022-10-19T08:16:49;7.63;;;1.30;;
72674;SDS011;60752;53.962;9.614;2022-10-19T08:21:51;4.53;;;1.20;;
72674;SDS011;60752;53.962;9.614;2022-10-19T08:26:52;5.53;;;1.03;;
72674;SDS011;60752;53.962;9.614;2022-10-19T08:31:52;8.07;;;1.30;;
72674;SDS011;60752;53.962;9.614;2022-10-19T08:36:54;4.70;;;0.93;;
72674;SDS011;60752;53.962;9.614;2022-10-19T08:41:56;5.32;;;0.98;;
72674;SDS011;60752;53.962;9.614;2022-10-19T08:47:02;7.40;;;0.90;;
72674;SDS011;60752;53.962;9.614;2022-10-19T08:52:15;7.57;;;1.15;;
72674;SDS011;60752;53.962;9.614;2022-10-19T08:57:24;10.20;;;1.35;;
72674;SDS011;60752;53.962;9.614;2022-10-19T09:02:38;6.13;;;1.43;;
72674;SDS011;60752;53.962;9.614;2022-10-19T09:07:48;7.85;;;1.27;;
72674;SDS011;60752;53.962;9.614;2022-10-19T09:12:53;6.10;;;1.20;;
72674;SDS011;60752;53.962;9.614;2022-10-19T09:17:57;8.93;;;1.30;;
72674;SDS011;60752;53.962;9.614;2022-10-19T09:23:01;6.30;;;1.33;;
72674;SDS011;60752;53.962;9.614;2022-10-19T09:28:08;7.70;;;1.23;;
72674;SDS011;60752;53.962;9.614;2022-10-19T09:33:19;5.30;;;1.13;;
72674;SDS011;60752;53.962;9.614;2022-10-19T09:38:26;6.97;;;1.00;;
72674;SDS011;60752;53.962;9.614;2022-10-19T09:43:27;5.20;;;1.13;;
72674;SDS011;60752;53.962;9.614;2022-10-19T09:48:30;5.93;;;0.83;;
72674;SDS011;60752;53.962;9.614;2022-10-19T09:53:35;12.50;;;1.85;;
72674;SDS011;60752;53.962;9.614;2022-10-19T09:58:36;4.25;;;0.90;;
72674;SDS011;60752;53.962;9.614;2022-10-19T10:03:46;6.97;;;1.00;;
72674;SDS011;60752;53.962;9.614;2022-10-19T10:08:52;4.03;;;0.80;;
72674;SDS011;60752;53.962;9.614;2022-10-19T10:13:54;4.00;;;1.00;;
72674;SDS011;60752;53.962;9.614;2022-10-19T10:18:56;6.77;;;1.00;;
72674;SDS011;60752;53.962;9.614;2022-10-19T10:24:04;8.70;;;0.93;;
72674;SDS011;60752;53.962;9.614;2022-10-19T10:29:18;4.85;;;1.08;;
72674;SDS011;60752;53.962;9.614;2022-10-19T10:34:26;5.20;;;1.05;;
72674;SDS011;60752;53.962;9.614;2022-10-19T10:39:35;7.03;;;1.87;;
72674;SDS011;60752;53.962;9.614;2022-10-19T10:44:42;3.78;;;0.90;;
72674;SDS011;60752;53.962;9.614;2022-10-19T10:49:44;5.57;;;0.80;;
72674;SDS011;60752;53.962;9.614;2022-10-19T10:54:58;2.93;;;0.80;;
72674;SDS011;60752;53.962;9.614;2022-10-19T11:00:01;4.10;;;0.80;;
72674;SDS011;60752;53.962;9.614;2022-10-19T11:05:07;6.00;;;0.95;;
72674;SDS011;60752;53.962;9.614;2022-10-19T11:10:15;3.30;;;0.80;;
72674;SDS011;60752;53.962;9.614;2022-10-19T11:15:23;5.10;;;0.90;;
72674;SDS011;60752;53.962;9.614;2022-10-19T11:20:28;7.15;;;1.30;;
72674;SDS011;60752;53.962;9.614;2022-10-19T11:25:33;2.83;;;1.00;;
72674;SDS011;60752;53.962;9.614;2022-10-19T11:30:46;5.43;;;1.10;;
72674;SDS011;60752;53.962;9.614;2022-10-19T11:35:55;3.63;;;0.93;;
72674;SDS011;60752;53.962;9.614;2022-10-19T11:41:02;5.35;;;1.10;;
72674;SDS011;60752;53.962;9.614;2022-10-19T11:46:11;4.47;;;0.97;;
72674;SDS011;60752;53.962;9.614;2022-10-19T11:51:21;4.80;;;0.95;;
72674;SDS011;60752;53.962;9.614;2022-10-19T11:56:34;7.25;;;0.98;;
72674;SDS011;60752;53.962;9.614;2022-10-19T12:01:41;3.00;;;1.00;;
72674;SDS011;60752;53.962;9.614;2022-10-19T12:06:53;2.60;;;0.80;;
72674;SDS011;60752;53.962;9.614;2022-10-19T12:12:04;2.92;;;0.68;;
72674;SDS011;60752;53.962;9.614;2022-10-19T12:17:19;1.95;;;0.68;;
72674;SDS011;60752;53.962;9.614;2022-10-19T12:22:24;1.30;;;0.50;;
72674;SDS011;60752;53.962;9.614;2022-10-19T12:27:32;2.65;;;0.60;;
72674;SDS011;60752;53.962;9.614;2022-10-19T12:32:37;1.30;;;0.50;;
72674;SDS011;60752;53.962;9.614;2022-10-19T12:37:43;2.20;;;0.80;;
72674;SDS011;60752;53.962;9.614;2022-10-19T12:42:51;3.33;;;0.60;;
72674;SDS011;60752;53.962;9.614;2022-10-19T12:53:22;3.30;;;0.70;;
72674;SDS011;60752;53.962;9.614;2022-10-19T12:58:25;3.03;;;0.60;;
72674;SDS011;60752;53.962;9.614;2022-10-19T13:03:29;2.33;;;0.47;;
72674;SDS011;60752;53.962;9.614;2022-10-19T13:08:35;2.53;;;0.50;;
72674;SDS011;60752;53.962;9.614;2022-10-19T13:13:53;3.20;;;0.77;;
72674;SDS011;60752;53.962;9.614;2022-10-19T13:19:02;2.28;;;0.60;;
72674;SDS011;60752;53.962;9.614;2022-10-19T13:24:19;1.73;;;0.60;;
72674;SDS011;60752;53.962;9.614;2022-10-19T13:29:37;1.30;;;0.60;;
72674;SDS011;60752;53.962;9.614;2022-10-19T13:34:39;1.48;;;0.57;;
72674;SDS011;60752;53.962;9.614;2022-10-19T13:39:40;1.83;;;0.45;;
72674;SDS011;60752;53.962;9.614;2022-10-19T13:44:42;3.50;;;0.60;;
72674;SDS011;60752;53.962;9.614;2022-10-19T13:55:29;3.60;;;0.60;;
72674;SDS011;60752;53.962;9.614;2022-10-19T14:00:57;2.63;;;0.70;;
72674;SDS011;60752;53.962;9.614;2022-10-19T14:06:16;3.97;;;0.60;;
72674;SDS011;60752;53.962;9.614;2022-10-19T14:11:24;2.20;;;0.70;;
72674;SDS011;60752;53.962;9.614;2022-10-19T14:16:28;1.77;;;0.60;;
72674;SDS011;60752;53.962;9.614;2022-10-19T14:21:29;1.40;;;0.60;;
72674;SDS011;60752;53.962;9.614;2022-10-19T14:26:31;2.13;;;0.60;;
72674;SDS011;60752;53.962;9.614;2022-10-19T14:31:34;1.52;;;0.50;;
72674;SDS011;60752;53.962;9.614;2022-10-19T14:36:37;5.43;;;0.80;;
72674;SDS011;60752;53.962;9.614;2022-10-19T14:41:42;1.67;;;0.60;;
72674;SDS011;60752;53.962;9.614;2022-10-19T14:46:47;1.42;;;0.55;;
72674;SDS011;60752;53.962;9.614;2022-10-19T14:51:48;6.17;;;0.63;;
72674;SDS011;60752;53.962;9.614;2022-10-19T14:56:51;4.40;;;0.50;;
72674;SDS011;60752;53.962;9.614;2022-10-19T15:01:55;2.88;;;0.82;;
72674;SDS011;60752;53.962;9.614;2022-10-19T15:06:58;3.38;;;0.82;;
72674;SDS011;60752;53.962;9.614;2022-10-19T15:12:03;1.50;;;0.50;;
72674;SDS011;60752;53.962;9.614;2022-10-19T15:17:19;2.13;;;0.73;;
72674;SDS011;60752;53.962;9.614;2022-10-19T15:22:24;3.72;;;0.85;;
72674;SDS011;60752;53.962;9.614;2022-10-19T15:27:37;1.77;;;0.60;;
72674;SDS011;60752;53.962;9.614;2022-10-19T15:32:40;1.33;;;0.50;;
72674;SDS011;60752;53.962;9.614;2022-10-19T15:37:42;1.20;;;0.52;;
72674;SDS011;60752;53.962;9.614;2022-10-19T15:42:44;0.73;;;0.40;;
72674;SDS011;60752;53.962;9.614;2022-10-19T15:47:47;2.00;;;0.53;;
72674;SDS011;60752;53.962;9.614;2022-10-19T15:53:22;1.93;;;0.63;;
72674;SDS011;60752;53.962;9.614;2022-10-19T15:58:24;4.00;;;1.02;;
72674;SDS011;60752;53.962;9.614;2022-10-19T16:03:26;2.40;;;0.83;;
72674;SDS011;60752;53.962;9.614;2022-10-19T16:08:26;3.28;;;0.80;;
72674;SDS011;60752;53.962;9.614;2022-10-19T16:13:26;2.57;;;0.90;;
72674;SDS011;60752;53.962;9.614;2022-10-19T16:18:28;2.60;;;0.87;;
72674;SDS011;60752;53.962;9.614;2022-10-19T16:23:29;3.53;;;1.00;;
72674;SDS011;60752;53.962;9.614;2022-10-19T16:28:29;4.07;;;1.50;;
72674;SDS011;60752;53.962;9.614;2022-10-19T16:33:31;4.90;;;2.37;;
72674;SDS011;60752;53.962;9.614;2022-10-19T16:38:31;5.15;;;2.60;;
72674;SDS011;60752;53.962;9.614;2022-10-19T16:43:32;6.07;;;2.63;;
72674;SDS011;60752;53.962;9.614;2022-10-19T16:48:35;5.35;;;2.47;;
72674;SDS011;60752;53.962;9.614;2022-10-19T16:53:36;4.33;;;1.50;;
72674;SDS011;60752;53.962;9.614;2022-10-19T16:58:37;5.18;;;2.08;;
72674;SDS011;60752;53.962;9.614;2022-10-19T17:03:39;7.53;;;2.33;;
72674;SDS011;60752;53.962;9.614;2022-10-19T17:08:39;16.87;;;5.60;;
72674;SDS011;60752;53.962;9.614;2022-10-19T17:13:40;19.95;;;6.07;;
72674;SDS011;60752;53.962;9.614;2022-10-19T17:18:43;22.88;;;7.68;;
72674;SDS011;60752;53.962;9.614;2022-10-19T17:23:45;20.23;;;7.57;;
72674;SDS011;60752;53.962;9.614;2022-10-19T17:28:45;22.07;;;7.90;;
72674;SDS011;60752;53.962;9.614;2022-10-19T17:33:47;13.03;;;4.87;;
72674;SDS011;60752;53.962;9.614;2022-10-19T17:38:51;10.50;;;4.03;;
72674;SDS011;60752;53.962;9.614;2022-10-19T17:43:54;6.97;;;2.73;;
72674;SDS011;60752;53.962;9.614;2022-10-19T17:48:56;7.82;;;2.40;;
72674;SDS011;60752;53.962;9.614;2022-10-19T17:54:09;5.65;;;2.28;;
72674;SDS011;60752;53.962;9.614;2022-10-19T17:59:27;6.03;;;2.37;;
72674;SDS011;60752;53.962;9.614;2022-10-19T18:04:29;7.60;;;3.07;;
72674;SDS011;60752;53.962;9.614;2022-10-19T18:09:29;6.25;;;2.78;;
72674;SDS011;60752;53.962;9.614;2022-10-19T18:14:29;5.90;;;2.60;;
72674;SDS011;60752;53.962;9.614;2022-10-19T18:19:31;5.30;;;2.30;;
72674;SDS011;60752;53.962;9.614;2022-10-19T18:24:32;7.57;;;2.00;;
72674;SDS011;60752;53.962;9.614;2022-10-19T18:29:32;8.50;;;3.67;;
72674;SDS011;60752;53.962;9.614;2022-10-19T18:34:34;20.20;;;8.07;;
72674;SDS011;60752;53.962;9.614;2022-10-19T18:39:34;21.83;;;8.00;;
72674;SDS011;60752;53.962;9.614;2022-10-19T18:44:35;17.80;;;6.63;;
72674;SDS011;60752;53.962;9.614;2022-10-19T18:49:36;17.80;;;5.43;;
72674;SDS011;60752;53.962;9.614;2022-10-19T18:54:37;12.67;;;4.67;;
72674;SDS011;60752;53.962;9.614;2022-10-19T18:59:37;9.13;;;3.77;;
72674;SDS011;60752;53.962;9.614;2022-10-19T19:04:39;10.43;;;3.53;;
72674;SDS011;60752;53.962;9.614;2022-10-19T19:09:39;9.30;;;3.13;;
72674;SDS011;60752;53.962;9.614;2022-10-19T19:14:40;12.40;;;3.47;;
72674;SDS011;60752;53.962;9.614;2022-10-19T19:19:42;6.17;;;3.10;;
72674;SDS011;60752;53.962;9.614;2022-10-19T19:24:42;5.00;;;2.20;;
72674;SDS011;60752;53.962;9.614;2022-10-19T19:29:43;5.53;;;2.13;;
72674;SDS011;60752;53.962;9.614;2022-10-19T19:34:44;6.30;;;2.40;;
72674;SDS011;60752;53.962;9.614;2022-10-19T19:39:45;4.90;;;2.23;;
72674;SDS011;60752;53.962;9.614;2022-10-19T19:44:45;4.63;;;2.03;;
72674;SDS011;60752;53.962;9.614;2022-10-19T19:49:47;5.73;;;2.03;;
72674;SDS011;60752;53.962;9.614;2022-10-19T19:54:47;6.50;;;2.08;;
72674;SDS011;60752;53.962;9.614;2022-10-19T19:59:48;6.10;;;2.50;;
72674;SDS011;60752;53.962;9.614;2022-10-19T20:04:49;4.60;;;2.27;;
72674;SDS011;60752;53.962;9.614;2022-10-19T20:09:50;4.80;;;1.80;;
72674;SDS011;60752;53.962;9.614;2022-10-19T20:14:50;4.03;;;1.80;;
72674;SDS011;60752;53.962;9.614;2022-10-19T20:19:52;10.20;;;2.17;;
72674;SDS011;60752;53.962;9.614;2022-10-19T20:24:52;5.60;;;2.20;;
72674;SDS011;60752;53.962;9.614;2022-10-19T20:29:53;3.73;;;1.50;;
72674;SDS011;60752;53.962;9.614;2022-10-19T20:34:55;2.83;;;1.13;;
72674;SDS011;60752;53.962;9.614;2022-10-19T20:39:55;4.93;;;1.53;;
72674;SDS011;60752;53.962;9.614;2022-10-19T20:44:58;7.07;;;1.50;;
72674;SDS011;60752;53.962;9.614;2022-10-19T20:50:00;2.77;;;0.90;;
72674;SDS011;60752;53.962;9.614;2022-10-19T20:55:00;3.05;;;0.80;;
72674;SDS011;60752;53.962;9.614;2022-10-19T21:00:00;3.83;;;1.20;;
72674;SDS011;60752;53.962;9.614;2022-10-19T21:05:02;3.97;;;1.20;;
72674;SDS011;60752;53.962;9.614;2022-10-19T21:10:03;3.67;;;1.20;;
72674;SDS011;60752;53.962;9.614;2022-10-19T21:15:05;3.90;;;1.40;;
72674;SDS011;60752;53.962;9.614;2022-10-19T21:20:07;4.03;;;1.23;;
72674;SDS011;60752;53.962;9.614;2022-10-19T21:25:08;3.60;;;1.33;;
72674;SDS011;60752;53.962;9.614;2022-10-19T21:30:09;3.07;;;1.30;;
72674;SDS011;60752;53.962;9.614;2022-10-19T21:35:11;4.28;;;1.20;;
72674;SDS011;60752;53.962;9.614;2022-10-19T21:40:12;3.10;;;1.10;;
72674;SDS011;60752;53.962;9.614;2022-10-19T21:45:12;3.47;;;1.03;;
72674;SDS011;60752;53.962;9.614;2022-10-19T21:50:14;3.47;;;1.20;;
72674;SDS011;60752;53.962;9.614;2022-10-19T21:55:14;4.35;;;1.30;;
72674;SDS011;60752;53.962;9.614;2022-10-19T22:00:15;5.30;;;1.30;;
72674;SDS011;60752;53.962;9.614;2022-10-19T22:05:17;3.70;;;1.20;;
72674;SDS011;60752;53.962;9.614;2022-10-19T22:10:17;2.55;;;1.02;;
72674;SDS011;60752;53.962;9.614;2022-10-19T22:15:18;3.83;;;1.30;;
72674;SDS011;60752;53.962;9.614;2022-10-19T22:20:19;3.07;;;1.27;;
72674;SDS011;60752;53.962;9.614;2022-10-19T22:25:20;4.70;;;1.27;;
72674;SDS011;60752;53.962;9.614;2022-10-19T22:30:20;3.97;;;1.30;;
72674;SDS011;60752;53.962;9.614;2022-10-19T22:35:22;3.40;;;1.07;;
72674;SDS011;60752;53.962;9.614;2022-10-19T22:40:22;6.77;;;1.43;;
72674;SDS011;60752;53.962;9.614;2022-10-19T22:45:23;4.03;;;1.33;;
72674;SDS011;60752;53.962;9.614;2022-10-19T22:50:25;4.60;;;1.10;;
72674;SDS011;60752;53.962;9.614;2022-10-19T22:55:25;4.50;;;1.10;;
72674;SDS011;60752;53.962;9.614;2022-10-19T23:00:25;2.77;;;1.07;;
72674;SDS011;60752;53.962;9.614;2022-10-19T23:05:27;4.13;;;1.20;;
72674;SDS011;60752;53.962;9.614;2022-10-19T23:10:27;4.13;;;1.35;;
72674;SDS011;60752;53.962;9.614;2022-10-19T23:15:28;7.63;;;1.50;;
72674;SDS011;60752;53.962;9.614;2022-10-19T23:20:30;3.40;;;1.13;;
72674;SDS011;60752;53.962;9.614;2022-10-19T23:25:30;5.63;;;0.90;;
72674;SDS011;60752;53.962;9.614;2022-10-19T23:30:30;6.07;;;1.50;;
72674;SDS011;60752;53.962;9.614;2022-10-19T23:35:32;3.80;;;1.13;;
72674;SDS011;60752;53.962;9.614;2022-10-19T23:40:33;3.53;;;0.93;;
72674;SDS011;60752;53.962;9.614;2022-10-19T23:45:33;3.50;;;1.00;;
72674;SDS011;60752;53.962;9.614;2022-10-19T23:50:35;4.70;;;1.53;;
72674;SDS011;60752;53.962;9.614;2022-10-19T23:55:35;3.15;;;1.10;;
